Startpagina
METAR-TAF:

METAR-TAF

Vliegvelden :

Büchel, Duitsland

breedte: 50-10N, lengte: 007-04E, hoogte: 478 m

Actueel weer

Dit bericht is 39 minuten geleden gemaakt, om 01:20 UTC
Wind 3 kt uit het oostnoordoosten
Temperatuur 11°C
Vochtigheid 94%
Druk 1020 hPa
Zicht 10 km of meer

METAR: ETSB 260120Z AUTO 07003KT 9999 // ////// 11/10 Q1020 ///

Tijdstip: 03:59 (01:59 UTC)

Verwachting

Dit bericht is 5 uur en het 44 minuten geleden gemaakt, om 20:15 UTC
Verwachting geldig van 25 om 20 UTC tot 26 om 05 UTC
Wind 5 kt uit het oostnoordoosten
Zicht 10 km of meer
Verspreide wolken op 3000 ft
Wijzigt naar
van 25 om 22 UTC tot 26 om 00 UTC
Wind 4 kt uit het noordoosten
Zicht: 5000 m
Weinig wolken op 2000 ft
nevel
Wijzigt naar
van 26 om 00 UTC tot 26 om 02 UTC
Wind 3 kt uit het noordnoordoosten
Zicht: 2020 m
Weinig wolken op 100 ft
Gebroken wolken op 300 ft
nevel

TAF: ETSB 252015Z 2520/2605 07005KT 9999 NSW SCT030 BECMG 2522/2600 05004KT 5000 BR FEW020 BECMG 2600/2602 03003KT 2000 BR FEW001 BKN003 CANCEL 2020 BY ETGL

Waarnemingen en weersverwachtingen van meer dan 4000 vliegvelden (METAR en TAF).

De beschikbare stations zijn de gele en rode punten op de kaart.

Ga met uw muis naar het station om de naam te zien.

Klik dan om waarnemingen en weersverwachtingen te zien.

kaart wijzigen: klik op de groene knoppen met een zwart kruis om in te zoomen, op de groene knop met een streepje om uit te zoomen of op de groene pijlen voor aangrenzende kaarten.


METAR-TAF: